Latest Weather Observations for Roma

IDQ60801

Issued at 12:02 pm EST Thursday 3 September 2015 (issued every 30 minutes, with the page automatically refreshed every 10 minutes)

About weather observations | Map of weather stations | Latest weather observations for QLD | Other Formats
Station Details ID: 043091 Name: ROMA AIRPORT Lat: -26.55 Lon: 148.77 Height: 307.38 m
Data from the previous 72 hours. | See also: Recent months at Roma
Date/Time
EST
Temp
°C
App
Temp
°C
Dew
Point
Rel
Hum
%
Delta-T
°C
Wind Press
QNH
hPa
Press
MSL
hPa
Rain
since 9 am
mm
Dir
 
Spd
km/h
Gust
km/h
Spd
kts
Gust
kts
03/12:00pm 20.3 12.2 3.5 33 8.1 W 35 48 19 26 1015.1 1014.3 0.0
03/11:30am 20.0 12.0 3.7 34 7.9 W 35 44 19 24 1015.7 1014.9 0.0
03/11:00am 19.0 11.5 4.7 39 7.0 WNW 33 48 18 26 1016.2 1015.4 0.0
03/10:30am 18.8 12.3 4.6 39 6.9 WNW 28 35 15 19 1016.6 1015.9 0.0
03/10:02am 18.0 11.5 4.6 41 6.5 W 28 46 15 25 1017.3 1016.5 0.0
03/10:00am 17.4 10.3 3.3 39 6.6 W 30 46 16 25 1017.5 1016.7 0.0
03/09:30am 17.3 10.3 4.3 42 6.2 W 30 41 16 22 1017.6 1016.8 0.0
03/09:00am 16.7 10.1 4.1 43 6.0 W 28 39 15 21 1017.4 1016.6 15.6
03/08:30am 15.6 9.2 3.1 43 5.8 WNW 26 35 14 19 1017.2 1016.4 15.6
03/08:00am 15.0 9.2 2.2 42 5.8 WNW 22 33 12 18 1016.9 1016.2 15.6
03/07:30am 14.0 8.6 2.3 45 5.2 WNW 20 26 11 14 1016.3 1015.6 15.6
03/07:00am 12.7 7.5 3.6 54 4.1 W 20 28 11 15 1015.9 1015.1 15.6
03/06:30am 11.2 6.5 5.3 67 2.8 WNW 19 20 10 11 1015.5 1014.7 15.6
03/06:00am 11.4 7.2 5.7 68 2.7 W 17 20 9 11 1015.0 1014.2 15.6
03/05:30am 12.5 8.6 7.2 70 2.6 W 17 20 9 11 1014.6 1013.8 15.6
03/05:00am 13.0 9.9 8.7 75 2.2 W 15 17 8 9 1014.3 1013.5 15.6
03/04:30am 15.0 11.0 9.1 68 3.1 W 20 26 11 14 1013.3 1012.5 15.6
03/04:00am 16.5 12.7 9.7 64 3.6 W 20 28 11 15 1013.0 1012.2 15.6
03/03:30am 16.8 13.2 10.6 67 3.4 WNW 20 24 11 13 1012.8 1012.0 15.6
03/03:00am 17.1 14.7 12.6 75 2.5 NW 17 22 9 12 1012.5 1011.7 15.6
03/02:30am 17.1 15.4 13.6 80 2.0 NW 15 20 8 11 1012.4 1011.6 15.6
03/02:00am 17.6 16.6 14.7 83 1.7 NW 13 17 7 9 1012.4 1011.6 15.6
03/01:30am 18.0 16.5 15.4 85 1.5 NNW 17 20 9 11 1012.7 1011.9 15.6
03/01:00am 18.0 16.1 15.3 84 1.6 NW 19 24 10 13 1012.6 1011.8 15.6
03/12:30am 18.5 16.3 15.9 85 1.6 N 22 30 12 16 1012.2 1011.4 15.6
03/12:00am 17.1 16.4 15.4 90 1.0 N 13 17 7 9 1011.9 1011.1 15.6
 
Date/Time
EST
Temp
°C
App
Temp
°C
Dew
Point
Rel
Hum
%
Delta-T
°C
Wind Press
QNH
hPa
Press
MSL
hPa
Rain
since 9 am
mm
Dir
 
Spd
km/h
Gust
km/h
Spd
kts
Gust
kts
02/11:30pm 17.0 16.6 15.3 90 1.0 NNE 11 15 6 8 1011.7 1010.9 15.6
02/11:00pm 16.9 16.2 15.4 91 0.9 NNE 13 17 7 9 1011.6 1010.8 15.6
02/10:30pm 16.6 16.2 15.1 91 0.9 NE 11 13 6 7 1011.9 1011.1 15.6
02/10:00pm 16.6 17.2 15.3 92 0.8 NNE 6 11 3 6 1012.7 1011.9 15.6
02/09:30pm 16.2 16.5 14.9 92 0.8 NE 7 11 4 6 1012.9 1012.1 15.6
02/09:00pm 16.3 16.7 14.8 91 0.9 WSW 6 7 3 4 1013.2 1012.4 15.6
02/08:30pm 16.3 17.0 14.5 89 1.0 E 4 7 2 4 1012.8 1012.0 15.6
02/08:00pm 17.2 16.5 15.5 90 1.0 SSW 13 17 7 9 1012.8 1012.0 15.6
02/07:52pm 17.3 17.0 15.5 89 1.1 SW 11 13 6 7 1012.7 1011.9 15.6
02/07:30pm 17.7 18.3 15.3 86 1.4 N 6 9 3 5 1013.1 1012.3 14.2
02/07:20pm 17.5 16.7 15.1 86 1.4 SE 13 22 7 12 1012.6 1011.8 13.2
02/07:00pm 18.2 15.8 15.5 84 1.6 WSW 22 30 12 16 1013.3 1012.5 12.8
02/06:50pm 18.3 16.2 14.8 80 2.1 SW 19 30 10 16 1013.0 1012.2 2.4
02/06:30pm 19.7 20.0 14.9 74 2.8 NNE 7 11 4 6 1011.9 1011.1 0.0
02/06:00pm 22.6 20.9 12.5 53 5.8 WNW 13 17 7 9 1011.9 1011.1 0.0
02/05:30pm 24.9 20.0 10.0 39 8.3 N 26 32 14 17 1011.0 1010.2 0.0
02/05:00pm 25.8 21.2 9.6 36 9.0 NNE 24 32 13 17 1010.7 1009.9 0.0
02/04:30pm 26.9 22.6 9.3 33 9.8 N 22 33 12 18 1011.1 1010.3 0.0
02/04:00pm 26.8 22.1 9.2 33 9.8 N 24 30 13 16 1011.3 1010.5 0.0
02/03:30pm 28.0 23.3 9.3 31 10.5 N 24 35 13 19 1011.1 1010.3 0.0
02/03:00pm 27.9 22.9 9.7 32 10.3 N 26 35 14 19 1011.4 1010.6 0.0
02/02:30pm 27.0 22.3 9.4 33 9.8 N 24 30 13 16 1012.0 1011.2 0.0
02/02:00pm 29.0 24.7 10.6 32 10.6 N 24 35 13 19 1012.2 1011.4 0.0
02/01:30pm 28.4 24.2 9.6 31 10.6 N 22 35 12 19 1012.6 1011.8 0.0
02/01:00pm 28.4 24.2 9.6 31 10.6 N 22 35 12 19 1013.1 1012.3 0.0
02/12:30pm 27.2 22.5 9.1 32 10.1 N 24 37 13 20 1013.9 1013.1 0.0
02/12:00pm 27.7 23.2 10.0 33 10.0 N 24 37 13 20 1014.8 1014.0 0.0
02/11:30am 25.7 21.2 9.9 37 8.9 N 24 35 13 19 1015.4 1014.6 0.0
02/11:00am 24.2 18.5 9.8 40 8.0 N 30 37 16 20 1016.3 1015.6 0.0
02/10:30am 22.4 16.7 8.5 41 7.5 NNE 28 35 15 19 1016.7 1016.0 0.0
02/10:00am 21.7 15.4 8.9 44 6.9 N 32 44 17 24 1017.1 1016.3 0.0
02/09:30am 19.9 14.8 7.6 45 6.4 N 24 32 13 17 1017.5 1016.7 0.0
02/09:00am 18.2 13.5 6.1 45 6.0 NNE 20 32 11 17 1017.4 1016.6 0.0
02/08:30am 17.1 11.2 4.1 42 6.2 N 24 33 13 18 1017.6 1016.8 0.0
02/08:00am 14.7 9.5 3.5 47 5.2 N 20 26 11 14 1017.4 1016.6 0.0
02/07:30am 12.8 8.8 4.8 58 3.7 N 15 20 8 11 1017.2 1016.4 0.0
02/07:00am 10.9 7.0 5.4 69 2.6 NNE 15 17 8 9 1017.1 1016.3 0.0
02/06:30am 7.9 5.5 4.3 78 1.6 N 6 9 3 5 1016.9 1016.2 0.0
02/06:00am 8.3 7.2 5.2 81 1.4 CALM 0 0 0 0 1016.7 1016.0 0.0
02/05:30am 8.3 7.4 5.9 85 1.1 CALM 0 0 0 0 1016.5 1015.8 0.0
02/05:00am 7.3 6.2 4.9 85 1.1 CALM 0 0 0 0 1016.4 1015.7 0.0
02/04:30am 6.8 5.6 4.5 85 1.0 CALM 0 0 0 0 1016.2 1015.4 0.0
02/04:00am 6.2 4.9 4.2 87 0.9 CALM 0 4 0 2 1016.2 1015.4 0.0
02/03:30am 5.9 3.4 3.6 85 1.0 NNE 6 7 3 4 1016.4 1015.7 0.0
02/03:00am 5.9 4.5 3.6 85 1.0 CALM 0 0 0 0 1016.7 1016.0 0.0
02/02:30am 5.9 4.5 3.6 85 1.0 CALM 0 2 0 1 1017.1 1016.3 0.0
02/02:00am 6.0 3.3 2.5 78 1.5 WNW 6 7 3 4 1017.1 1016.3 0.0
02/01:30am 9.1 7.5 2.2 62 2.9 CALM 0 0 0 0 1017.1 1016.3 0.0
02/01:00am 7.9 6.3 2.2 67 2.4 CALM 0 0 0 0 1016.8 1016.1 0.0
02/12:30am 8.3 6.5 1.5 62 2.8 CALM 0 0 0 0 1016.7 1016.0 0.0
02/12:00am 10.9 9.1 1.2 51 4.1 CALM 0 0 0 0 1016.9 1016.2 0.0
 
Date/Time
EST
Temp
°C
App
Temp
°C
Dew
Point
Rel
Hum
%
Delta-T
°C
Wind Press
QNH
hPa
Press
MSL
hPa
Rain
since 9 am
mm
Dir
 
Spd
km/h
Gust
km/h
Spd
kts
Gust
kts
01/11:30pm 11.8 10.0 1.4 49 4.5 CALM 0 0 0 0 1016.9 1016.2 0.0
01/11:00pm 11.8 9.0 2.0 51 4.3 N 6 7 3 4 1017.1 1016.3 0.0
01/10:30pm 12.1 9.2 2.6 52 4.2 NNE 7 11 4 6 1016.9 1016.2 0.0
01/10:00pm 11.9 9.0 2.6 53 4.1 NNE 7 9 4 5 1016.9 1016.2 0.0
01/09:30pm 11.5 8.3 3.0 56 3.8 NNE 9 9 5 5 1016.8 1016.1 0.0
01/09:00pm 10.9 8.0 2.5 56 3.7 NNE 7 9 4 5 1016.8 1016.1 0.0
01/08:30pm 13.1 9.6 1.5 45 5.1 E 9 9 5 5 1016.6 1015.9 0.0
01/08:00pm 13.5 10.3 0.9 42 5.4 E 7 7 4 4 1016.6 1015.9 0.0
01/07:30pm 13.6 10.7 1.3 43 5.4 E 6 7 3 4 1016.3 1015.6 0.0
01/07:00pm 13.7 10.7 2.0 45 5.2 ESE 7 9 4 5 1016.1 1015.3 0.0
01/06:30pm 15.8 12.2 0.8 36 6.6 ESE 9 11 5 6 1015.7 1014.9 0.0
01/06:00pm 17.2 13.9 -0.1 31 7.6 ESE 7 9 4 5 1015.6 1014.8 0.0
01/05:30pm 19.6 15.8 -0.4 26 8.9 ESE 9 11 5 6 1015.4 1014.6 0.0
01/05:00pm 21.2 16.9 -1.3 22 9.9 ESE 11 13 6 7 1015.2 1014.4 0.0
01/04:30pm 22.2 19.3 -1.1 21 10.4 WSW 4 9 2 5 1015.0 1014.2 0.0
01/04:00pm 21.7 18.2 -1.6 21 10.3 SE 7 11 4 6 1015.0 1014.2 0.0
01/03:30pm 21.9 17.7 -0.8 22 10.2 SSE 11 17 6 9 1015.2 1014.4 0.0
01/03:00pm 22.4 18.7 -0.3 22 10.3 NW 9 15 5 8 1015.5 1014.7 0.0
01/02:30pm 21.3 17.6 -0.1 24 9.7 SE 9 15 5 8 1015.9 1015.1 0.0
01/02:00pm 21.6 17.5 -0.4 23 9.9 S 11 20 6 11 1016.4 1015.7 0.0
01/01:30pm 21.1 17.5 0.9 26 9.3 SSW 9 15 5 8 1016.7 1016.0 0.0
01/01:00pm 20.6 16.8 -0.7 24 9.5 WSW 9 19 5 10 1017.1 1016.3 0.0
01/12:30pm 20.1 15.5 -1.1 24 9.3 SSW 13 19 7 10 1017.7 1016.9 0.0
01/12:00pm 19.6 15.7 1.1 29 8.4 SW 11 15 6 8 1018.4 1017.6 0.0
01/11:30am 19.3 16.3 1.8 31 8.1 ESE 7 11 4 6 1018.8 1018.0 0.0
01/11:00am 18.3 15.2 1.3 32 7.7 ENE 7 11 4 6 1019.3 1018.6 0.0
01/10:30am 17.6 14.1 1.2 33 7.4 N 9 15 5 8 1019.6 1018.9 0.0
01/10:00am 17.0 13.6 1.8 36 6.9 NNE 9 13 5 7 1020.0 1019.3 0.0
01/09:30am 14.9 11.8 3.4 46 5.3 NE 9 15 5 8 1020.2 1020.0 0.0
01/09:00am 13.9 11.4 4.5 53 4.4 NNE 7 9 4 5 1020.1 1019.9 0.0
01/08:30am 11.2 9.6 4.7 64 3.0 N 2 7 1 4 1020.0 1019.8 0.0
01/08:00am 8.1 5.6 3.9 75 1.8 NNE 6 7 3 4 1019.7 1019.5 0.0
01/07:30am 5.6 2.9 2.9 83 1.1 NNE 6 7 3 4 1019.3 1019.1 0.0
01/07:00am 3.3 0.3 2.0 91 0.5 NNE 7 7 4 4 1019.1 1018.9 0.0
01/06:30am 1.7 -1.9 0.4 91 0.5 N 9 9 5 5 1018.8 1018.6 0.0
01/06:00am 1.9 -1.1 0.6 91 0.5 NNE 6 6 3 3 1018.6 1018.4 0.0
01/05:30am 1.5 -2.2 0.2 91 0.5 NNE 9 11 5 6 1018.6 1018.4 0.0
01/05:00am 2.2 -1.3 1.0 92 0.5 N 9 9 5 5 1018.3 1018.1 0.0
01/04:30am 1.9 -1.4 0.4 90 0.6 NNE 7 7 4 4 1018.1 1017.9 0.0
01/04:00am 2.5 -0.7 0.9 89 0.6 N 7 9 4 5 1018.1 1017.9 0.0
01/03:30am 2.2 -1.4 0.3 87 0.7 N 9 9 5 5 1018.1 1017.9 0.0
01/03:00am 2.7 -0.3 0.9 88 0.7 N 6 6 3 3 1017.9 1017.7 0.0
01/02:30am 2.4 -1.6 0.5 87 0.7 N 11 13 6 7 1018.3 1018.1 0.0
01/02:00am 3.2 0.7 1.3 87 0.7 NNE 4 9 2 5 1018.3 1018.1 0.0
01/01:30am 4.1 2.4 2.0 86 0.8 CALM 0 0 0 0 1018.4 1018.2 0.0
01/01:00am 3.2 0.9 0.6 83 1.0 N 2 6 1 3 1018.7 1018.5 0.0
01/12:30am 4.1 0.7 2.0 86 0.8 N 9 13 5 7 1018.8 1018.6 0.0
01/12:00am 4.6 1.2 2.0 83 1.1 NNE 9 11 5 6 1018.9 1018.7 0.0
 
Date/Time
EST
Temp
°C
App
Temp
°C
Dew
Point
Rel
Hum
%
Delta-T
°C
Wind Press
QNH
hPa
Press
MSL
hPa
Rain
since 9 am
mm
Dir
 
Spd
km/h
Gust
km/h
Spd
kts
Gust
kts
31/11:30pm 4.7 2.2 1.7 81 1.2 N 4 9 2 5 1018.9 1018.7 0.0
31/11:00pm 5.2 3.4 1.1 75 1.6 CALM 0 0 0 0 1019.0 1018.8 0.0
31/10:30pm 6.4 3.5 1.7 72 1.9 W 6 6 3 3 1019.0 1018.8 0.0
31/10:00pm 6.7 3.9 2.0 72 1.9 NW 6 7 3 4 1019.0 1018.8 0.0
31/09:30pm 6.3 3.2 1.2 70 2.1 SSW 7 9 4 5 1018.8 1018.6 0.0
31/09:00pm 7.5 4.8 2.4 70 2.1 WNW 6 9 3 5 1018.7 1018.5 0.0
31/08:30pm 8.8 7.2 2.2 63 2.8 CALM 0 0 0 0 1018.5 1018.3 0.0
31/08:00pm 10.5 6.2 -1.5 43 4.8 WSW 11 11 6 6 1018.4 1018.2 0.0
31/07:30pm 10.4 6.6 -1.0 45 4.6 SW 9 11 5 6 1018.1 1017.9 0.0
31/07:00pm 11.5 6.8 -1.6 40 5.2 WSW 13 13 7 7 1017.7 1017.5 0.0
31/06:30pm 12.4 7.8 -0.8 40 5.4 W 13 13 7 7 1017.4 1017.1 0.0
31/06:00pm 13.8 9.2 -1.4 35 6.3 SW 13 15 7 8 1017.2 1016.9 0.0
31/05:30pm 17.3 13.3 -1.9 27 8.1 SW 9 15 5 8 1016.9 1016.7 0.0
31/05:00pm 18.4 13.2 -2.5 24 8.8 SSW 15 20 8 11 1016.8 1016.6 0.0
31/04:30pm 18.5 12.8 -3.6 22 9.1 SW 17 24 9 13 1016.7 1016.5 0.0
31/04:00pm 19.4 14.3 -1.7 24 9.1 WSW 15 26 8 14 1016.6 1016.4 0.0
31/03:30pm 19.2 15.1 -0.2 27 8.6 SW 11 22 6 12 1016.6 1016.4 0.0
31/03:00pm 18.9 14.0 -0.5 27 8.5 SSW 15 22 8 12 1016.9 1016.7 0.0
31/02:30pm 18.1 13.2 -0.2 29 8.1 SSW 15 20 8 11 1017.4 1017.1 0.0
31/02:00pm 18.0 13.5 -0.3 29 8.0 SSW 13 20 7 11 1017.8 1017.6 0.0
31/01:30pm 18.2 12.8 1.3 32 7.7 SW 19 30 10 16 1018.1 1017.9 0.0
31/01:00pm 17.7 12.5 -0.1 30 7.8 SW 17 22 9 12 1018.6 1018.4 0.0
31/12:30pm 17.0 11.6 -1.1 29 7.7 WSW 17 26 9 14 1019.0 1018.8 0.0

Other Formats:

Comma delimited format used in spreadsheet applications
http://www.bom.gov.au/fwo/IDQ60801/IDQ60801.94515.axf

JavaScript Object Notation format (JSON) in row-major order
http://www.bom.gov.au/fwo/IDQ60801/IDQ60801.94515.json